sensor_id;sensor_type;location;lat;lon;timestamp;P1;durP1;ratioP1;P2;durP2;ratioP2
70818;SDS011;58439;51.046;13.692;2022-12-18T00:01:28;63.28;;;22.52;;
70818;SDS011;58439;51.046;13.692;2022-12-18T00:04:01;60.05;;;23.20;;
70818;SDS011;58439;51.046;13.692;2022-12-18T00:06:32;57.20;;;20.67;;
70818;SDS011;58439;51.046;13.692;2022-12-18T00:09:01;63.08;;;22.98;;
70818;SDS011;58439;51.046;13.692;2022-12-18T00:11:30;49.90;;;20.15;;
70818;SDS011;58439;51.046;13.692;2022-12-18T00:13:58;52.38;;;19.70;;
70818;SDS011;58439;51.046;13.692;2022-12-18T00:16:27;53.88;;;19.90;;
70818;SDS011;58439;51.046;13.692;2022-12-18T00:18:58;57.25;;;19.85;;
70818;SDS011;58439;51.046;13.692;2022-12-18T00:21:27;56.33;;;20.38;;
70818;SDS011;58439;51.046;13.692;2022-12-18T00:23:57;58.08;;;21.02;;
70818;SDS011;58439;51.046;13.692;2022-12-18T00:26:28;55.47;;;18.85;;
70818;SDS011;58439;51.046;13.692;2022-12-18T00:29:01;51.22;;;19.85;;
70818;SDS011;58439;51.046;13.692;2022-12-18T00:31:36;53.53;;;19.05;;
70818;SDS011;58439;51.046;13.692;2022-12-18T00:34:04;52.15;;;19.30;;
70818;SDS011;58439;51.046;13.692;2022-12-18T00:36:33;52.47;;;18.35;;
70818;SDS011;58439;51.046;13.692;2022-12-18T00:39:02;47.20;;;18.50;;
70818;SDS011;58439;51.046;13.692;2022-12-18T00:41:31;49.50;;;18.30;;
70818;SDS011;58439;51.046;13.692;2022-12-18T00:44:18;55.63;;;18.65;;
70818;SDS011;58439;51.046;13.692;2022-12-18T00:46:46;47.38;;;17.67;;
70818;SDS011;58439;51.046;13.692;2022-12-18T00:49:16;41.38;;;16.00;;
70818;SDS011;58439;51.046;13.692;2022-12-18T00:51:46;44.92;;;15.40;;
70818;SDS011;58439;51.046;13.692;2022-12-18T00:54:14;42.97;;;14.27;;
70818;SDS011;58439;51.046;13.692;2022-12-18T00:56:43;42.78;;;14.57;;
70818;SDS011;58439;51.046;13.692;2022-12-18T01:01:44;40.25;;;15.05;;
70818;SDS011;58439;51.046;13.692;2022-12-18T01:04:13;44.80;;;15.52;;
70818;SDS011;58439;51.046;13.692;2022-12-18T01:06:44;40.00;;;15.88;;
70818;SDS011;58439;51.046;13.692;2022-12-18T01:09:11;49.58;;;17.42;;
70818;SDS011;58439;51.046;13.692;2022-12-18T01:11:38;48.90;;;16.63;;
70818;SDS011;58439;51.046;13.692;2022-12-18T01:14:06;42.55;;;15.65;;
70818;SDS011;58439;51.046;13.692;2022-12-18T01:16:35;48.10;;;16.17;;
70818;SDS011;58439;51.046;13.692;2022-12-18T01:19:03;40.88;;;16.75;;
70818;SDS011;58439;51.046;13.692;2022-12-18T01:21:30;52.63;;;16.67;;
70818;SDS011;58439;51.046;13.692;2022-12-18T01:24:02;46.30;;;17.40;;
70818;SDS011;58439;51.046;13.692;2022-12-18T01:26:30;47.05;;;17.48;;
70818;SDS011;58439;51.046;13.692;2022-12-18T01:28:57;43.28;;;15.40;;
70818;SDS011;58439;51.046;13.692;2022-12-18T01:31:26;47.33;;;16.52;;
70818;SDS011;58439;51.046;13.692;2022-12-18T01:33:56;34.83;;;14.75;;
70818;SDS011;58439;51.046;13.692;2022-12-18T01:36:28;40.00;;;14.75;;
70818;SDS011;58439;51.046;13.692;2022-12-18T01:39:02;42.40;;;14.65;;
70818;SDS011;58439;51.046;13.692;2022-12-18T01:41:33;42.80;;;14.97;;
70818;SDS011;58439;51.046;13.692;2022-12-18T01:47:49;44.13;;;14.55;;
70818;SDS011;58439;51.046;13.692;2022-12-18T01:50:28;39.38;;;13.52;;
70818;SDS011;58439;51.046;13.692;2022-12-18T01:53:10;42.10;;;14.93;;
70818;SDS011;58439;51.046;13.692;2022-12-18T01:55:50;39.92;;;14.93;;
70818;SDS011;58439;51.046;13.692;2022-12-18T01:58:23;37.28;;;15.07;;
70818;SDS011;58439;51.046;13.692;2022-12-18T02:01:03;45.67;;;15.48;;
70818;SDS011;58439;51.046;13.692;2022-12-18T02:03:31;42.78;;;15.45;;
70818;SDS011;58439;51.046;13.692;2022-12-18T02:06:06;44.95;;;15.02;;
70818;SDS011;58439;51.046;13.692;2022-12-18T02:09:02;50.88;;;14.80;;
70818;SDS011;58439;51.046;13.692;2022-12-18T02:11:45;38.78;;;14.82;;
70818;SDS011;58439;51.046;13.692;2022-12-18T02:14:38;37.90;;;14.25;;
70818;SDS011;58439;51.046;13.692;2022-12-18T02:17:33;38.72;;;13.48;;
70818;SDS011;58439;51.046;13.692;2022-12-18T02:23:05;46.45;;;14.75;;
70818;SDS011;58439;51.046;13.692;2022-12-18T02:26:20;33.55;;;13.20;;
70818;SDS011;58439;51.046;13.692;2022-12-18T02:29:08;37.38;;;12.32;;
70818;SDS011;58439;51.046;13.692;2022-12-18T02:31:45;35.70;;;12.73;;
70818;SDS011;58439;51.046;13.692;2022-12-18T02:34:23;46.83;;;14.15;;
70818;SDS011;58439;51.046;13.692;2022-12-18T02:36:57;35.13;;;12.93;;
70818;SDS011;58439;51.046;13.692;2022-12-18T02:39:29;42.95;;;14.60;;
70818;SDS011;58439;51.046;13.692;2022-12-18T02:42:02;32.63;;;12.88;;
70818;SDS011;58439;51.046;13.692;2022-12-18T02:44:34;29.55;;;11.70;;
70818;SDS011;58439;51.046;13.692;2022-12-18T02:47:12;36.33;;;12.75;;
70818;SDS011;58439;51.046;13.692;2022-12-18T02:52:19;40.10;;;13.10;;
70818;SDS011;58439;51.046;13.692;2022-12-18T02:57:52;33.42;;;11.50;;
70818;SDS011;58439;51.046;13.692;2022-12-18T03:06:10;27.52;;;11.25;;
70818;SDS011;58439;51.046;13.692;2022-12-18T03:08:51;31.13;;;12.00;;
70818;SDS011;58439;51.046;13.692;2022-12-18T03:11:27;32.60;;;12.13;;
70818;SDS011;58439;51.046;13.692;2022-12-18T03:14:20;32.33;;;11.63;;
70818;SDS011;58439;51.046;13.692;2022-12-18T03:16:50;30.70;;;11.98;;
70818;SDS011;58439;51.046;13.692;2022-12-18T03:19:23;31.17;;;9.88;;
70818;SDS011;58439;51.046;13.692;2022-12-18T03:21:57;40.08;;;11.68;;
70818;SDS011;58439;51.046;13.692;2022-12-18T03:24:39;28.10;;;12.63;;
70818;SDS011;58439;51.046;13.692;2022-12-18T03:27:11;35.80;;;11.07;;
70818;SDS011;58439;51.046;13.692;2022-12-18T03:29:46;26.63;;;9.88;;
70818;SDS011;58439;51.046;13.692;2022-12-18T03:32:27;36.75;;;10.32;;
70818;SDS011;58439;51.046;13.692;2022-12-18T03:35:02;27.35;;;10.40;;
70818;SDS011;58439;51.046;13.692;2022-12-18T03:37:35;27.70;;;10.23;;
70818;SDS011;58439;51.046;13.692;2022-12-18T03:40:03;36.65;;;10.25;;
70818;SDS011;58439;51.046;13.692;2022-12-18T03:45:32;27.58;;;10.50;;
70818;SDS011;58439;51.046;13.692;2022-12-18T03:50:49;28.63;;;10.07;;
70818;SDS011;58439;51.046;13.692;2022-12-18T03:56:11;28.63;;;9.77;;
70818;SDS011;58439;51.046;13.692;2022-12-18T03:58:43;25.38;;;9.85;;
70818;SDS011;58439;51.046;13.692;2022-12-18T04:01:20;22.90;;;9.55;;
70818;SDS011;58439;51.046;13.692;2022-12-18T04:03:59;29.77;;;9.45;;
70818;SDS011;58439;51.046;13.692;2022-12-18T04:06:35;26.70;;;10.10;;
70818;SDS011;58439;51.046;13.692;2022-12-18T04:09:04;23.15;;;8.70;;
70818;SDS011;58439;51.046;13.692;2022-12-18T04:11:36;26.02;;;8.23;;
70818;SDS011;58439;51.046;13.692;2022-12-18T04:14:04;21.52;;;7.82;;
70818;SDS011;58439;51.046;13.692;2022-12-18T04:16:33;22.63;;;7.82;;
70818;SDS011;58439;51.046;13.692;2022-12-18T04:19:03;21.63;;;8.88;;
70818;SDS011;58439;51.046;13.692;2022-12-18T04:21:37;29.40;;;10.80;;
70818;SDS011;58439;51.046;13.692;2022-12-18T04:24:04;22.92;;;8.63;;
70818;SDS011;58439;51.046;13.692;2022-12-18T04:40:11;22.27;;;7.82;;
70818;SDS011;58439;51.046;13.692;2022-12-18T04:42:43;27.35;;;9.00;;
70818;SDS011;58439;51.046;13.692;2022-12-18T04:56:06;16.15;;;7.72;;
70818;SDS011;58439;51.046;13.692;2022-12-18T04:58:37;20.17;;;7.32;;
70818;SDS011;58439;51.046;13.692;2022-12-18T05:01:07;22.67;;;8.68;;
70818;SDS011;58439;51.046;13.692;2022-12-18T05:03:35;23.13;;;8.05;;
70818;SDS011;58439;51.046;13.692;2022-12-18T05:06:04;24.40;;;8.55;;
70818;SDS011;58439;51.046;13.692;2022-12-18T05:08:32;19.38;;;7.85;;
70818;SDS011;58439;51.046;13.692;2022-12-18T05:11:01;21.63;;;9.32;;
70818;SDS011;58439;51.046;13.692;2022-12-18T05:13:35;22.92;;;7.90;;
70818;SDS011;58439;51.046;13.692;2022-12-18T05:16:05;20.90;;;7.60;;
70818;SDS011;58439;51.046;13.692;2022-12-18T05:18:33;22.65;;;8.20;;
70818;SDS011;58439;51.046;13.692;2022-12-18T05:21:00;22.75;;;6.97;;
70818;SDS011;58439;51.046;13.692;2022-12-18T05:23:32;19.92;;;7.88;;
70818;SDS011;58439;51.046;13.692;2022-12-18T05:26:00;26.33;;;7.53;;
70818;SDS011;58439;51.046;13.692;2022-12-18T05:28:30;17.45;;;6.50;;
70818;SDS011;58439;51.046;13.692;2022-12-18T05:31:02;19.20;;;6.80;;
70818;SDS011;58439;51.046;13.692;2022-12-18T05:33:31;20.05;;;7.05;;
70818;SDS011;58439;51.046;13.692;2022-12-18T05:36:02;27.55;;;8.07;;
70818;SDS011;58439;51.046;13.692;2022-12-18T05:38:33;20.40;;;6.72;;
70818;SDS011;58439;51.046;13.692;2022-12-18T05:41:03;18.35;;;7.40;;
70818;SDS011;58439;51.046;13.692;2022-12-18T05:43:33;17.13;;;7.18;;
70818;SDS011;58439;51.046;13.692;2022-12-18T05:46:06;20.92;;;7.15;;
70818;SDS011;58439;51.046;13.692;2022-12-18T05:48:42;23.92;;;7.75;;
70818;SDS011;58439;51.046;13.692;2022-12-18T05:51:11;18.88;;;6.65;;
70818;SDS011;58439;51.046;13.692;2022-12-18T05:53:42;19.27;;;7.28;;
70818;SDS011;58439;51.046;13.692;2022-12-18T05:56:11;23.58;;;7.43;;
70818;SDS011;58439;51.046;13.692;2022-12-18T05:58:41;18.55;;;6.72;;
70818;SDS011;58439;51.046;13.692;2022-12-18T06:01:11;17.27;;;6.72;;
70818;SDS011;58439;51.046;13.692;2022-12-18T06:03:43;18.20;;;6.82;;
70818;SDS011;58439;51.046;13.692;2022-12-18T06:06:19;19.38;;;6.95;;
70818;SDS011;58439;51.046;13.692;2022-12-18T06:08:52;19.05;;;6.97;;
70818;SDS011;58439;51.046;13.692;2022-12-18T06:11:22;19.05;;;6.97;;
70818;SDS011;58439;51.046;13.692;2022-12-18T06:13:55;19.55;;;7.32;;
70818;SDS011;58439;51.046;13.692;2022-12-18T06:16:26;19.00;;;7.57;;
70818;SDS011;58439;51.046;13.692;2022-12-18T06:18:58;26.80;;;7.90;;
70818;SDS011;58439;51.046;13.692;2022-12-18T06:21:28;19.25;;;7.00;;
70818;SDS011;58439;51.046;13.692;2022-12-18T06:33:39;19.55;;;7.35;;
70818;SDS011;58439;51.046;13.692;2022-12-18T06:36:11;16.23;;;7.20;;
70818;SDS011;58439;51.046;13.692;2022-12-18T06:38:40;23.23;;;7.72;;
70818;SDS011;58439;51.046;13.692;2022-12-18T06:41:10;17.23;;;6.97;;
70818;SDS011;58439;51.046;13.692;2022-12-18T06:46:46;23.05;;;8.40;;
70818;SDS011;58439;51.046;13.692;2022-12-18T06:49:14;23.00;;;9.90;;
70818;SDS011;58439;51.046;13.692;2022-12-18T06:51:55;27.43;;;9.37;;
70818;SDS011;58439;51.046;13.692;2022-12-18T06:54:22;22.60;;;8.38;;
70818;SDS011;58439;51.046;13.692;2022-12-18T06:56:50;19.20;;;8.05;;
70818;SDS011;58439;51.046;13.692;2022-12-18T06:59:17;26.92;;;8.05;;
70818;SDS011;58439;51.046;13.692;2022-12-18T07:01:45;18.90;;;8.02;;
70818;SDS011;58439;51.046;13.692;2022-12-18T07:04:12;19.95;;;7.28;;
70818;SDS011;58439;51.046;13.692;2022-12-18T07:06:40;22.63;;;8.57;;
70818;SDS011;58439;51.046;13.692;2022-12-18T07:09:07;24.88;;;8.45;;
70818;SDS011;58439;51.046;13.692;2022-12-18T07:11:34;30.95;;;9.95;;
70818;SDS011;58439;51.046;13.692;2022-12-18T07:14:01;21.65;;;7.72;;
70818;SDS011;58439;51.046;13.692;2022-12-18T07:16:28;25.98;;;8.50;;
70818;SDS011;58439;51.046;13.692;2022-12-18T07:18:56;26.85;;;8.93;;
70818;SDS011;58439;51.046;13.692;2022-12-18T07:21:23;21.27;;;9.32;;
70818;SDS011;58439;51.046;13.692;2022-12-18T07:23:51;26.33;;;9.65;;
70818;SDS011;58439;51.046;13.692;2022-12-18T07:26:19;33.33;;;10.15;;
70818;SDS011;58439;51.046;13.692;2022-12-18T07:28:48;32.97;;;10.15;;
70818;SDS011;58439;51.046;13.692;2022-12-18T07:31:19;27.27;;;9.77;;
70818;SDS011;58439;51.046;13.692;2022-12-18T07:33:48;23.70;;;9.48;;
70818;SDS011;58439;51.046;13.692;2022-12-18T07:36:17;17.98;;;8.23;;
70818;SDS011;58439;51.046;13.692;2022-12-18T07:38:49;27.88;;;9.43;;
70818;SDS011;58439;51.046;13.692;2022-12-18T07:41:18;28.40;;;10.40;;
70818;SDS011;58439;51.046;13.692;2022-12-18T07:43:46;22.90;;;9.13;;
70818;SDS011;58439;51.046;13.692;2022-12-18T07:46:15;27.20;;;9.00;;
70818;SDS011;58439;51.046;13.692;2022-12-18T07:48:43;20.42;;;8.20;;
70818;SDS011;58439;51.046;13.692;2022-12-18T07:51:16;26.27;;;9.43;;
70818;SDS011;58439;51.046;13.692;2022-12-18T07:53:44;25.08;;;8.85;;
70818;SDS011;58439;51.046;13.692;2022-12-18T07:56:17;30.73;;;11.20;;
70818;SDS011;58439;51.046;13.692;2022-12-18T07:58:56;23.60;;;8.75;;
70818;SDS011;58439;51.046;13.692;2022-12-18T08:01:24;22.02;;;9.98;;
70818;SDS011;58439;51.046;13.692;2022-12-18T08:03:53;25.67;;;9.82;;
70818;SDS011;58439;51.046;13.692;2022-12-18T08:06:20;29.00;;;9.80;;
70818;SDS011;58439;51.046;13.692;2022-12-18T08:08:50;25.70;;;9.43;;
70818;SDS011;58439;51.046;13.692;2022-12-18T08:11:19;28.70;;;11.40;;
70818;SDS011;58439;51.046;13.692;2022-12-18T08:13:47;32.10;;;10.43;;
70818;SDS011;58439;51.046;13.692;2022-12-18T08:16:14;32.85;;;11.70;;
70818;SDS011;58439;51.046;13.692;2022-12-18T08:18:42;42.03;;;16.10;;
70818;SDS011;58439;51.046;13.692;2022-12-18T08:21:10;32.70;;;12.02;;
70818;SDS011;58439;51.046;13.692;2022-12-18T08:23:41;44.20;;;14.82;;
70818;SDS011;58439;51.046;13.692;2022-12-18T08:26:10;37.92;;;11.80;;
70818;SDS011;58439;51.046;13.692;2022-12-18T08:28:38;35.67;;;12.93;;
70818;SDS011;58439;51.046;13.692;2022-12-18T08:31:06;39.13;;;13.13;;
70818;SDS011;58439;51.046;13.692;2022-12-18T08:33:52;41.75;;;14.38;;
70818;SDS011;58439;51.046;13.692;2022-12-18T08:36:23;34.40;;;12.88;;
70818;SDS011;58439;51.046;13.692;2022-12-18T08:38:52;36.70;;;13.48;;
70818;SDS011;58439;51.046;13.692;2022-12-18T08:41:20;35.85;;;12.40;;
70818;SDS011;58439;51.046;13.692;2022-12-18T08:43:47;33.95;;;12.77;;
70818;SDS011;58439;51.046;13.692;2022-12-18T08:46:35;46.03;;;13.95;;
70818;SDS011;58439;51.046;13.692;2022-12-18T08:49:07;39.88;;;14.90;;
70818;SDS011;58439;51.046;13.692;2022-12-18T08:51:35;38.45;;;14.90;;
70818;SDS011;58439;51.046;13.692;2022-12-18T08:54:03;45.30;;;14.57;;
70818;SDS011;58439;51.046;13.692;2022-12-18T08:56:32;34.40;;;14.20;;
70818;SDS011;58439;51.046;13.692;2022-12-18T08:59:03;39.17;;;13.63;;
70818;SDS011;58439;51.046;13.692;2022-12-18T09:01:31;43.65;;;13.70;;
70818;SDS011;58439;51.046;13.692;2022-12-18T09:04:00;34.85;;;13.25;;
70818;SDS011;58439;51.046;13.692;2022-12-18T09:06:28;40.83;;;14.85;;
70818;SDS011;58439;51.046;13.692;2022-12-18T09:08:56;41.08;;;14.45;;
70818;SDS011;58439;51.046;13.692;2022-12-18T09:11:25;40.90;;;14.68;;
70818;SDS011;58439;51.046;13.692;2022-12-18T09:13:55;42.97;;;14.95;;
70818;SDS011;58439;51.046;13.692;2022-12-18T09:16:24;45.90;;;16.83;;
70818;SDS011;58439;51.046;13.692;2022-12-18T09:18:58;48.42;;;18.35;;
70818;SDS011;58439;51.046;13.692;2022-12-18T09:21:30;38.13;;;15.32;;
70818;SDS011;58439;51.046;13.692;2022-12-18T09:27:17;41.75;;;14.32;;
70818;SDS011;58439;51.046;13.692;2022-12-18T09:29:58;38.22;;;16.33;;
70818;SDS011;58439;51.046;13.692;2022-12-18T09:32:26;44.83;;;16.05;;
70818;SDS011;58439;51.046;13.692;2022-12-18T09:34:53;41.22;;;16.90;;
70818;SDS011;58439;51.046;13.692;2022-12-18T09:37:20;43.92;;;17.30;;
70818;SDS011;58439;51.046;13.692;2022-12-18T09:39:47;41.00;;;16.85;;
70818;SDS011;58439;51.046;13.692;2022-12-18T09:42:21;52.58;;;18.27;;
70818;SDS011;58439;51.046;13.692;2022-12-18T09:44:50;51.47;;;16.27;;
70818;SDS011;58439;51.046;13.692;2022-12-18T09:49:52;50.63;;;17.65;;
70818;SDS011;58439;51.046;13.692;2022-12-18T09:52:26;41.72;;;15.60;;
70818;SDS011;58439;51.046;13.692;2022-12-18T09:55:11;43.97;;;16.55;;
70818;SDS011;58439;51.046;13.692;2022-12-18T10:00:36;42.30;;;17.60;;
70818;SDS011;58439;51.046;13.692;2022-12-18T10:03:08;55.22;;;18.63;;
70818;SDS011;58439;51.046;13.692;2022-12-18T10:05:49;52.95;;;17.52;;
70818;SDS011;58439;51.046;13.692;2022-12-18T10:24:47;49.90;;;16.98;;
70818;SDS011;58439;51.046;13.692;2022-12-18T10:27:42;46.08;;;16.40;;
70818;SDS011;58439;51.046;13.692;2022-12-18T10:30:14;52.60;;;17.80;;
70818;SDS011;58439;51.046;13.692;2022-12-18T10:32:45;44.95;;;16.95;;
70818;SDS011;58439;51.046;13.692;2022-12-18T10:35:22;38.63;;;15.25;;
70818;SDS011;58439;51.046;13.692;2022-12-18T10:38:00;46.42;;;17.33;;
70818;SDS011;58439;51.046;13.692;2022-12-18T10:43:32;40.00;;;15.30;;
70818;SDS011;58439;51.046;13.692;2022-12-18T10:48:52;44.30;;;16.58;;
70818;SDS011;58439;51.046;13.692;2022-12-18T10:51:31;43.05;;;15.52;;
70818;SDS011;58439;51.046;13.692;2022-12-18T10:54:16;40.80;;;15.90;;
70818;SDS011;58439;51.046;13.692;2022-12-18T10:57:33;36.03;;;14.70;;
70818;SDS011;58439;51.046;13.692;2022-12-18T11:02:50;39.85;;;14.18;;
70818;SDS011;58439;51.046;13.692;2022-12-18T11:05:27;40.45;;;14.77;;
70818;SDS011;58439;51.046;13.692;2022-12-18T11:08:00;43.65;;;16.13;;
70818;SDS011;58439;51.046;13.692;2022-12-18T11:10:32;39.03;;;14.55;;
70818;SDS011;58439;51.046;13.692;2022-12-18T11:13:23;33.28;;;14.18;;
70818;SDS011;58439;51.046;13.692;2022-12-18T11:15:56;35.15;;;14.02;;
70818;SDS011;58439;51.046;13.692;2022-12-18T11:18:34;44.97;;;15.43;;
70818;SDS011;58439;51.046;13.692;2022-12-18T11:21:09;39.92;;;14.55;;
70818;SDS011;58439;51.046;13.692;2022-12-18T11:23:46;42.60;;;15.43;;
70818;SDS011;58439;51.046;13.692;2022-12-18T11:26:19;45.00;;;17.05;;
70818;SDS011;58439;51.046;13.692;2022-12-18T11:28:52;43.72;;;16.27;;
70818;SDS011;58439;51.046;13.692;2022-12-18T11:31:36;44.55;;;15.93;;
70818;SDS011;58439;51.046;13.692;2022-12-18T11:34:22;40.88;;;14.57;;
70818;SDS011;58439;51.046;13.692;2022-12-18T11:36:58;32.83;;;12.93;;
70818;SDS011;58439;51.046;13.692;2022-12-18T11:39:45;39.38;;;15.13;;
70818;SDS011;58439;51.046;13.692;2022-12-18T11:42:38;40.10;;;15.80;;
70818;SDS011;58439;51.046;13.692;2022-12-18T11:45:28;42.47;;;15.57;;
70818;SDS011;58439;51.046;13.692;2022-12-18T11:48:22;41.47;;;14.95;;
70818;SDS011;58439;51.046;13.692;2022-12-18T11:51:11;49.45;;;15.65;;
70818;SDS011;58439;51.046;13.692;2022-12-18T11:53:52;43.65;;;16.10;;
70818;SDS011;58439;51.046;13.692;2022-12-18T11:56:32;40.58;;;15.15;;
70818;SDS011;58439;51.046;13.692;2022-12-18T11:59:15;44.33;;;16.65;;
70818;SDS011;58439;51.046;13.692;2022-12-18T12:08:14;35.38;;;13.98;;
70818;SDS011;58439;51.046;13.692;2022-12-18T12:13:52;40.70;;;14.65;;
70818;SDS011;58439;51.046;13.692;2022-12-18T12:19:43;32.38;;;13.77;;
70818;SDS011;58439;51.046;13.692;2022-12-18T12:22:40;36.65;;;14.90;;
70818;SDS011;58439;51.046;13.692;2022-12-18T12:34:31;41.05;;;15.70;;
70818;SDS011;58439;51.046;13.692;2022-12-18T12:39:55;34.53;;;13.43;;
70818;SDS011;58439;51.046;13.692;2022-12-18T12:42:28;44.25;;;15.43;;
70818;SDS011;58439;51.046;13.692;2022-12-18T12:45:28;46.22;;;15.15;;
70818;SDS011;58439;51.046;13.692;2022-12-18T12:48:04;40.67;;;14.05;;
70818;SDS011;58439;51.046;13.692;2022-12-18T12:50:43;41.08;;;15.18;;
70818;SDS011;58439;51.046;13.692;2022-12-18T12:53:19;39.28;;;14.35;;
70818;SDS011;58439;51.046;13.692;2022-12-18T12:55:58;39.40;;;13.50;;
70818;SDS011;58439;51.046;13.692;2022-12-18T12:58:28;43.13;;;15.63;;
70818;SDS011;58439;51.046;13.692;2022-12-18T13:04:37;44.03;;;14.50;;
70818;SDS011;58439;51.046;13.692;2022-12-18T13:07:59;46.45;;;15.63;;
70818;SDS011;58439;51.046;13.692;2022-12-18T13:10:39;40.33;;;14.77;;
70818;SDS011;58439;51.046;13.692;2022-12-18T13:13:29;43.88;;;13.93;;
70818;SDS011;58439;51.046;13.692;2022-12-18T13:16:21;42.45;;;14.13;;
70818;SDS011;58439;51.046;13.692;2022-12-18T13:19:03;36.33;;;13.38;;
70818;SDS011;58439;51.046;13.692;2022-12-18T13:22:23;47.15;;;15.50;;
70818;SDS011;58439;51.046;13.692;2022-12-18T13:24:58;41.50;;;14.68;;
70818;SDS011;58439;51.046;13.692;2022-12-18T13:41:04;45.47;;;15.75;;
70818;SDS011;58439;51.046;13.692;2022-12-18T13:43:57;39.67;;;15.52;;
70818;SDS011;58439;51.046;13.692;2022-12-18T13:46:48;42.97;;;13.87;;
70818;SDS011;58439;51.046;13.692;2022-12-18T13:52:14;41.40;;;13.90;;
70818;SDS011;58439;51.046;13.692;2022-12-18T13:54:53;43.85;;;14.20;;
70818;SDS011;58439;51.046;13.692;2022-12-18T13:57:36;43.47;;;14.57;;
70818;SDS011;58439;51.046;13.692;2022-12-18T14:00:24;38.67;;;14.07;;
70818;SDS011;58439;51.046;13.692;2022-12-18T14:02:58;46.45;;;16.08;;
70818;SDS011;58439;51.046;13.692;2022-12-18T14:05:32;44.80;;;15.95;;
70818;SDS011;58439;51.046;13.692;2022-12-18T14:08:10;36.00;;;13.73;;
70818;SDS011;58439;51.046;13.692;2022-12-18T14:10:44;45.28;;;14.48;;
70818;SDS011;58439;51.046;13.692;2022-12-18T14:16:11;33.42;;;13.35;;
70818;SDS011;58439;51.046;13.692;2022-12-18T14:18:51;43.45;;;15.23;;
70818;SDS011;58439;51.046;13.692;2022-12-18T14:21:33;42.80;;;14.57;;
70818;SDS011;58439;51.046;13.692;2022-12-18T14:24:15;38.05;;;15.52;;
70818;SDS011;58439;51.046;13.692;2022-12-18T14:26:50;42.40;;;14.15;;
70818;SDS011;58439;51.046;13.692;2022-12-18T14:29:20;39.42;;;13.10;;
70818;SDS011;58439;51.046;13.692;2022-12-18T14:32:04;36.00;;;13.68;;
70818;SDS011;58439;51.046;13.692;2022-12-18T14:34:50;41.13;;;12.40;;
70818;SDS011;58439;51.046;13.692;2022-12-18T14:37:22;39.47;;;14.77;;
70818;SDS011;58439;51.046;13.692;2022-12-18T14:42:36;33.70;;;12.02;;
70818;SDS011;58439;51.046;13.692;2022-12-18T14:48:23;41.50;;;13.52;;
70818;SDS011;58439;51.046;13.692;2022-12-18T14:51:05;34.70;;;13.40;;
70818;SDS011;58439;51.046;13.692;2022-12-18T14:53:53;38.15;;;12.38;;
70818;SDS011;58439;51.046;13.692;2022-12-18T14:56:34;33.15;;;13.38;;
70818;SDS011;58439;51.046;13.692;2022-12-18T14:59:19;45.95;;;13.50;;
70818;SDS011;58439;51.046;13.692;2022-12-18T15:10:45;40.42;;;13.25;;
70818;SDS011;58439;51.046;13.692;2022-12-18T15:16:21;39.63;;;13.55;;
70818;SDS011;58439;51.046;13.692;2022-12-18T15:18:55;37.67;;;12.38;;
70818;SDS011;58439;51.046;13.692;2022-12-18T15:22:24;45.80;;;14.88;;
70818;SDS011;58439;51.046;13.692;2022-12-18T15:25:02;37.38;;;13.40;;
70818;SDS011;58439;51.046;13.692;2022-12-18T15:28:00;40.95;;;14.25;;
70818;SDS011;58439;51.046;13.692;2022-12-18T15:30:28;40.30;;;14.57;;
70818;SDS011;58439;51.046;13.692;2022-12-18T15:37:22;49.97;;;15.02;;
70818;SDS011;58439;51.046;13.692;2022-12-18T15:41:02;44.00;;;15.02;;
70818;SDS011;58439;51.046;13.692;2022-12-18T15:45:13;42.28;;;15.10;;
70818;SDS011;58439;51.046;13.692;2022-12-18T15:48:26;41.33;;;14.65;;
70818;SDS011;58439;51.046;13.692;2022-12-18T15:50:54;37.95;;;13.43;;
70818;SDS011;58439;51.046;13.692;2022-12-18T15:53:27;59.08;;;18.73;;
70818;SDS011;58439;51.046;13.692;2022-12-18T15:55:59;46.72;;;14.38;;
70818;SDS011;58439;51.046;13.692;2022-12-18T15:58:47;43.47;;;14.80;;
70818;SDS011;58439;51.046;13.692;2022-12-18T16:04:51;43.28;;;16.50;;
70818;SDS011;58439;51.046;13.692;2022-12-18T16:07:20;44.58;;;14.45;;
70818;SDS011;58439;51.046;13.692;2022-12-18T16:09:51;54.95;;;15.18;;
70818;SDS011;58439;51.046;13.692;2022-12-18T16:12:21;41.55;;;12.02;;
70818;SDS011;58439;51.046;13.692;2022-12-18T16:14:51;26.23;;;9.98;;
70818;SDS011;58439;51.046;13.692;2022-12-18T16:17:19;39.80;;;12.48;;
70818;SDS011;58439;51.046;13.692;2022-12-18T16:19:47;38.47;;;13.80;;
70818;SDS011;58439;51.046;13.692;2022-12-18T16:22:18;41.10;;;15.05;;
70818;SDS011;58439;51.046;13.692;2022-12-18T16:24:49;51.05;;;16.55;;
70818;SDS011;58439;51.046;13.692;2022-12-18T16:27:20;51.07;;;17.33;;
70818;SDS011;58439;51.046;13.692;2022-12-18T16:29:48;48.08;;;15.27;;
70818;SDS011;58439;51.046;13.692;2022-12-18T16:32:18;44.28;;;15.93;;
70818;SDS011;58439;51.046;13.692;2022-12-18T16:34:49;42.92;;;15.75;;
70818;SDS011;58439;51.046;13.692;2022-12-18T16:37:16;44.47;;;13.85;;
70818;SDS011;58439;51.046;13.692;2022-12-18T16:39:48;45.92;;;15.25;;
70818;SDS011;58439;51.046;13.692;2022-12-18T16:42:18;53.45;;;16.17;;
70818;SDS011;58439;51.046;13.692;2022-12-18T16:44:47;46.67;;;16.83;;
70818;SDS011;58439;51.046;13.692;2022-12-18T16:47:18;56.80;;;20.20;;
70818;SDS011;58439;51.046;13.692;2022-12-18T16:49:46;49.05;;;14.77;;
70818;SDS011;58439;51.046;13.692;2022-12-18T16:52:18;54.42;;;16.70;;
70818;SDS011;58439;51.046;13.692;2022-12-18T16:54:46;49.05;;;15.52;;
70818;SDS011;58439;51.046;13.692;2022-12-18T16:57:16;40.42;;;13.85;;
70818;SDS011;58439;51.046;13.692;2022-12-18T16:59:50;54.42;;;16.48;;
70818;SDS011;58439;51.046;13.692;2022-12-18T17:02:22;50.03;;;15.85;;
70818;SDS011;58439;51.046;13.692;2022-12-18T17:04:54;48.47;;;15.57;;
70818;SDS011;58439;51.046;13.692;2022-12-18T17:07:29;46.70;;;17.08;;
70818;SDS011;58439;51.046;13.692;2022-12-18T17:09:56;38.53;;;13.73;;
70818;SDS011;58439;51.046;13.692;2022-12-18T17:12:24;46.88;;;16.20;;
70818;SDS011;58439;51.046;13.692;2022-12-18T17:14:52;48.13;;;17.20;;
70818;SDS011;58439;51.046;13.692;2022-12-18T17:17:19;49.50;;;16.25;;
70818;SDS011;58439;51.046;13.692;2022-12-18T17:19:49;50.05;;;16.75;;
70818;SDS011;58439;51.046;13.692;2022-12-18T17:22:18;51.75;;;16.67;;
70818;SDS011;58439;51.046;13.692;2022-12-18T17:24:48;43.03;;;14.85;;
70818;SDS011;58439;51.046;13.692;2022-12-18T17:27:15;52.35;;;16.80;;
70818;SDS011;58439;51.046;13.692;2022-12-18T17:29:43;50.97;;;17.50;;
70818;SDS011;58439;51.046;13.692;2022-12-18T17:32:15;41.55;;;15.50;;
70818;SDS011;58439;51.046;13.692;2022-12-18T17:34:43;42.72;;;15.80;;
70818;SDS011;58439;51.046;13.692;2022-12-18T17:37:18;44.88;;;15.68;;
70818;SDS011;58439;51.046;13.692;2022-12-18T17:39:45;41.70;;;16.25;;
70818;SDS011;58439;51.046;13.692;2022-12-18T17:42:12;56.38;;;16.58;;
70818;SDS011;58439;51.046;13.692;2022-12-18T17:44:42;43.95;;;16.75;;
70818;SDS011;58439;51.046;13.692;2022-12-18T17:47:10;45.30;;;15.68;;